CheckWX is a tool to help pilots better visualize weather data.  It is not intended as a substitute for an official pre-flight weather briefing.

21:04:37 UTC

CYZS METAR
Coral Harbour Airport
Coral Harbour, Canada
Current

2 hours ago

CYZS 231916Z 02018KT 15SM -SHSN SCT030 BKN160 OVC210 M01/M04 A2964 RMK SC4AS3CI1 VIA CYHZ SLP045
Observed
May-23 @ 19:16 UTC
Wind
  • 020° at 18 KTS
Visibility
15 SM
Flight Rules
VFR
Conditions
Light Snow
Cloud Levels
  • Scattered at 3,000' AGL
  • Broken at 16,000' AGL
  • Overcast at 21,000' AGL
Temperature
-1°C / 30°F
Dewpoint
-4°C / 25°F
Humidity
80%
Altimeter
29.64" Hg
Pressure
1003.72 hPa
Previous

2 hours ago

CYZS 231900Z 03017G22KT 15SM SCT030 BKN050 M01/M04 A2964 RMK SC3SC4 VIA CYHZ SLP045
Observed
May-23 @ 19:00 UTC
Wind
  • 030° at 17 KTS
  • Gusting to 22 KTS
Visibility
15 SM
Flight Rules
VFR
Cloud Levels
  • Scattered at 3,000' AGL
  • Broken at 5,000' AGL
Temperature
-1°C / 30°F
Dewpoint
-4°C / 25°F
Humidity
80%
Altimeter
29.64" Hg
Pressure
1003.72 hPa
Previous

3 hours ago

CYZS 231800Z 03017KT 15SM SCT050 BKN160 OVC210 M01/M04 A2964 RMK SC3AS3CI2 VIA CYHZ SLP043
Observed
May-23 @ 18:00 UTC
Wind
  • 030° at 17 KTS
Visibility
15 SM
Flight Rules
VFR
Cloud Levels
  • Scattered at 5,000' AGL
  • Broken at 16,000' AGL
  • Overcast at 21,000' AGL
Temperature
-1°C / 30°F
Dewpoint
-4°C / 25°F
Humidity
80%
Altimeter
29.64" Hg
Pressure
1003.72 hPa